Time;durP1;ratioP1;P1;durP2;ratioP2;P2;SDS_P1;SDS_P2;PMS_P1;PMS_P2;Temp;Humidity;BMP_temperature;BMP_pressure;BME280_temperature;BME280_humidity;BME280_pressure;Samples;Min_cycle;Max_cycle;Signal;HPM_P1;HPM_P2
2023/05/05 00:01:01;;;;;;;2.77;2.57;;;9.30;1.00;;;;;;5089710;28;20462;-68
2023/05/05 00:03:28;;;;;;;10.00;2.70;;;9.20;1.00;;;;;;5073176;28;20455;-67
2023/05/05 00:05:54;;;;;;;4.07;3.57;;;9.20;1.00;;;;;;5076950;28;20442;-68
2023/05/05 00:08:24;;;;;;;4.80;3.10;;;9.20;1.00;;;;;;5095333;28;20408;-66
2023/05/05 00:10:51;;;;;;;8.60;3.00;;;9.10;1.00;;;;;;5092294;28;20405;-68
2023/05/05 00:13:20;;;;;;;8.33;3.30;;;9.10;1.00;;;;;;5074605;28;20795;-68
2023/05/05 00:15:48;;;;;;;4.43;3.67;;;9.20;1.00;;;;;;5074527;28;20401;-67
2023/05/05 00:18:16;;;;;;;4.77;3.00;;;9.20;1.00;;;;;;5055686;28;20838;-65
2023/05/05 00:20:46;;;;;;;4.70;3.17;;;9.20;1.00;;;;;;5074710;28;20408;-66
2023/05/05 00:23:12;;;;;;;4.87;3.43;;;9.10;1.00;;;;;;5073757;28;20433;-67
2023/05/05 00:25:37;;;;;;;3.30;2.60;;;9.10;1.00;;;;;;5056704;28;20401;-65
2023/05/05 00:28:03;;;;;;;8.83;3.70;;;9.10;1.00;;;;;;5058261;28;21151;-69
2023/05/05 00:30:29;;;;;;;4.50;3.90;;;9.20;1.00;;;;;;5073575;28;20404;-66
2023/05/05 00:32:56;;;;;;;4.70;3.30;;;9.20;1.00;;;;;;5089247;28;20448;-66
2023/05/05 00:35:21;;;;;;;12.13;4.10;;;9.30;1.00;;;;;;5094463;28;20164;-68
2023/05/05 00:37:48;;;;;;;10.47;4.27;;;9.30;1.00;;;;;;5079174;28;20471;-66
2023/05/05 00:40:13;;;;;;;4.73;4.30;;;9.30;1.00;;;;;;5073378;28;20165;-68
2023/05/05 00:42:45;;;;;;;7.57;4.97;;;9.30;1.00;;;;;;5086629;28;20524;-66
2023/05/05 00:45:13;;;;;;;11.33;5.20;;;9.30;1.00;;;;;;5079949;28;20436;-66
2023/05/05 00:47:41;;;;;;;6.37;5.77;;;9.30;1.00;;;;;;5074077;28;20916;-66
2023/05/05 00:50:08;;;;;;;10.73;7.67;;;9.30;1.00;;;;;;5072879;28;20399;-66
2023/05/05 00:52:37;;;;;;;8.03;6.07;;;9.30;1.00;;;;;;5088491;28;20444;-66
2023/05/05 00:55:07;;;;;;;8.63;6.60;;;9.30;1.00;;;;;;5094116;28;20505;-66
2023/05/05 00:57:34;;;;;;;9.43;5.67;;;9.30;1.00;;;;;;5080140;28;20452;-66
2023/05/05 01:00:01;;;;;;;7.67;6.97;;;9.30;1.00;;;;;;5071975;28;20430;-68
2023/05/05 01:02:27;;;;;;;14.93;6.37;;;9.30;1.00;;;;;;5086639;28;20440;-68
2023/05/05 01:04:54;;;;;;;8.00;6.90;;;9.20;1.00;;;;;;5093245;28;20883;-67
2023/05/05 01:07:47;;;;;;;16.63;6.47;;;9.20;1.00;;;;;;5078788;28;20176;-66
2023/05/05 01:10:28;;;;;;;7.87;6.03;;;9.20;1.00;;;;;;5072756;28;20919;-69
2023/05/05 01:13:12;;;;;;;15.30;7.40;;;9.20;1.00;;;;;;5062559;28;20468;-66
2023/05/05 01:15:53;;;;;;;9.30;6.20;;;9.10;1.00;;;;;;5054344;28;20401;-66
2023/05/05 01:18:20;;;;;;;10.70;6.40;;;9.10;1.00;;;;;;5053167;28;20450;-66
2023/05/05 01:20:58;;;;;;;7.83;6.50;;;9.00;1.00;;;;;;5052626;28;20414;-66
2023/05/05 01:23:36;;;;;;;10.30;6.00;;;9.00;1.00;;;;;;5053464;28;20801;-66
2023/05/05 01:26:20;;;;;;;8.40;5.93;;;9.00;1.00;;;;;;5055917;28;20625;-66
2023/05/05 01:29:13;;;;;;;9.87;7.30;;;9.00;1.00;;;;;;5081014;28;20933;-69
2023/05/05 01:31:56;;;;;;;15.17;6.07;;;9.00;1.00;;;;;;5086985;28;20565;-69
2023/05/05 01:34:27;;;;;;;12.63;6.70;;;9.00;1.00;;;;;;5073128;28;20402;-67
2023/05/05 01:37:07;;;;;;;14.50;7.40;;;9.00;1.00;;;;;;5064657;28;20426;-66
2023/05/05 01:39:35;;;;;;;13.50;7.37;;;9.00;1.00;;;;;;5053457;28;20393;-69
2023/05/05 01:42:07;;;;;;;10.20;6.97;;;9.00;1.00;;;;;;5077586;28;20421;-69
2023/05/05 01:44:35;;;;;;;10.93;6.43;;;9.00;1.00;;;;;;5081284;28;20409;-66
2023/05/05 01:47:02;;;;;;;11.67;5.60;;;8.90;1.00;;;;;;5073625;28;20394;-67
2023/05/05 01:49:28;;;;;;;8.30;7.10;;;8.90;1.00;;;;;;5073496;28;20405;-66
2023/05/05 01:51:56;;;;;;;11.67;6.10;;;8.90;1.00;;;;;;5087348;28;20902;-67
2023/05/05 01:54:23;;;;;;;6.70;6.00;;;8.90;1.00;;;;;;5072691;28;20746;-69
2023/05/05 01:56:52;;;;;;;9.03;5.67;;;8.80;1.00;;;;;;5079320;28;20400;-66
2023/05/05 01:59:20;;;;;;;6.23;5.63;;;8.80;1.00;;;;;;5086982;28;20919;-69
2023/05/05 02:01:47;;;;;;;8.70;5.90;;;8.80;1.00;;;;;;5087412;28;20459;-66
2023/05/05 02:04:16;;;;;;;11.80;6.20;;;8.80;1.00;;;;;;5093459;28;20396;-69
2023/05/05 02:06:44;;;;;;;10.87;5.47;;;8.80;1.00;;;;;;5060655;28;20421;-69
2023/05/05 02:09:11;;;;;;;10.93;5.60;;;8.80;1.00;;;;;;5073095;28;20808;-66
2023/05/05 02:11:38;;;;;;;6.93;5.43;;;8.70;1.00;;;;;;5072612;28;20424;-68
2023/05/05 02:14:06;;;;;;;13.17;6.80;;;8.80;1.00;;;;;;5073167;28;20502;-66
2023/05/05 02:16:32;;;;;;;11.23;6.00;;;8.80;1.00;;;;;;5076579;28;20412;-69
2023/05/05 02:19:03;;;;;;;19.13;7.33;;;8.80;1.00;;;;;;5076876;28;20910;-66
2023/05/05 02:21:30;;;;;;;6.03;5.53;;;8.80;1.00;;;;;;5085238;28;20390;-68
2023/05/05 02:23:57;;;;;;;7.20;5.47;;;8.80;1.00;;;;;;5075590;28;20808;-66
2023/05/05 02:26:23;;;;;;;9.97;6.53;;;8.80;1.00;;;;;;5076644;28;20401;-67
2023/05/05 02:29:02;;;;;;;7.07;5.80;;;8.80;1.00;;;;;;5076909;28;20402;-66
2023/05/05 02:31:29;;;;;;;9.60;6.07;;;8.80;1.00;;;;;;5084226;28;20417;-66
2023/05/05 02:33:58;;;;;;;8.20;6.50;;;8.70;1.00;;;;;;5096630;28;20437;-68
2023/05/05 02:36:28;;;;;;;8.40;6.30;;;8.80;1.00;;;;;;5087895;28;21000;-68
2023/05/05 02:38:58;;;;;;;13.23;5.43;;;8.80;1.00;;;;;;5077023;28;20451;-66
2023/05/05 02:41:26;;;;;;;9.10;5.93;;;8.80;1.00;;;;;;5082232;28;20414;-66
2023/05/05 02:43:56;;;;;;;6.60;5.83;;;8.80;1.00;;;;;;5096717;28;20415;-69
2023/05/05 02:46:21;;;;;;;9.50;5.70;;;8.70;1.00;;;;;;5090411;28;20413;-68
2023/05/05 02:48:47;;;;;;;16.07;5.83;;;8.70;1.00;;;;;;5076318;28;20395;-66
2023/05/05 02:51:13;;;;;;;9.73;5.67;;;8.70;1.00;;;;;;5056819;28;20178;-69
2023/05/05 02:53:38;;;;;;;11.27;4.87;;;8.70;1.00;;;;;;5076737;28;20180;-69
2023/05/05 02:56:19;;;;;;;13.70;5.93;;;8.70;1.00;;;;;;5078000;28;20182;-68
2023/05/05 02:58:52;;;;;;;9.20;5.90;;;8.70;1.00;;;;;;5076475;28;20213;-66
2023/05/05 03:01:27;;;;;;;14.57;6.20;;;8.60;1.00;;;;;;5091686;28;20439;-65
2023/05/05 03:04:10;;;;;;;7.37;5.80;;;8.60;1.00;;;;;;5057874;28;20434;-68
2023/05/05 03:06:41;;;;;;;13.77;5.90;;;8.60;1.00;;;;;;5058710;28;20434;-69
2023/05/05 03:09:14;;;;;;;7.70;5.70;;;8.60;1.00;;;;;;5075972;28;20412;-68
2023/05/05 03:11:48;;;;;;;7.80;5.47;;;8.60;1.00;;;;;;5083716;28;20908;-68
2023/05/05 03:14:20;;;;;;;11.50;5.23;;;8.60;1.00;;;;;;5096022;28;20421;-66
2023/05/05 03:16:46;;;;;;;5.90;5.33;;;8.60;1.00;;;;;;5085163;28;20421;-69
2023/05/05 03:19:17;;;;;;;10.03;5.20;;;8.50;1.00;;;;;;5055852;28;20844;-66
2023/05/05 03:21:43;;;;;;;9.03;5.67;;;8.50;1.00;;;;;;5078458;28;20416;-66
2023/05/05 03:24:14;;;;;;;7.27;5.60;;;8.50;1.00;;;;;;5095139;28;20785;-66
2023/05/05 03:26:40;;;;;;;6.67;5.30;;;8.50;1.00;;;;;;5083209;28;20416;-66
2023/05/05 03:29:06;;;;;;;12.60;6.10;;;8.50;1.00;;;;;;5074824;28;20389;-69
2023/05/05 03:31:32;;;;;;;10.00;5.93;;;8.50;1.00;;;;;;5074701;28;20417;-65
2023/05/05 03:33:58;;;;;;;6.10;5.43;;;8.50;1.00;;;;;;5075450;28;20860;-69
2023/05/05 03:36:23;;;;;;;11.23;6.10;;;8.50;1.00;;;;;;5075045;28;20498;-67
2023/05/05 03:38:49;;;;;;;16.23;5.73;;;8.50;1.00;;;;;;5095636;28;20186;-66
2023/05/05 03:41:15;;;;;;;6.50;5.60;;;8.40;1.00;;;;;;5088489;28;20171;-67
2023/05/05 03:43:40;;;;;;;7.37;5.57;;;8.50;1.00;;;;;;5074464;28;20183;-66
2023/05/05 03:46:06;;;;;;;9.50;6.70;;;8.50;1.00;;;;;;5075427;28;20170;-66
2023/05/05 03:48:33;;;;;;;16.97;7.33;;;8.50;1.00;;;;;;5074918;28;20171;-66
2023/05/05 03:50:59;;;;;;;10.23;6.30;;;8.50;1.00;;;;;;5075388;28;20254;-68
2023/05/05 03:53:24;;;;;;;11.80;5.17;;;8.50;1.00;;;;;;5095363;28;20415;-69
2023/05/05 03:55:51;;;;;;;7.20;5.47;;;8.50;1.00;;;;;;5095130;28;20404;-67
2023/05/05 03:58:17;;;;;;;6.90;4.80;;;8.50;1.00;;;;;;5054995;28;20202;-66
2023/05/05 04:00:43;;;;;;;7.60;5.20;;;8.50;3.30;;;;;;5072709;28;20494;-66
2023/05/05 04:03:08;;;;;;;8.23;5.07;;;8.60;1.00;;;;;;5074861;28;20396;-66
2023/05/05 04:05:34;;;;;;;11.53;5.73;;;8.60;1.00;;;;;;5084335;28;20181;-69
2023/05/05 04:08:00;;;;;;;6.73;4.90;;;8.50;1.00;;;;;;5095320;28;20400;-67
2023/05/05 04:10:26;;;;;;;10.90;4.70;;;8.60;1.00;;;;;;5085773;28;20420;-66
2023/05/05 04:12:51;;;;;;;9.60;4.53;;;8.60;1.00;;;;;;5074445;28;20209;-69
2023/05/05 04:15:17;;;;;;;13.23;5.07;;;8.60;1.00;;;;;;5084078;28;20685;-68
2023/05/05 04:17:43;;;;;;;11.83;5.60;;;8.60;2.50;;;;;;5094211;28;20672;-66
2023/05/05 04:20:09;;;;;;;10.97;5.57;;;8.60;3.10;;;;;;5085108;28;20174;-66
2023/05/05 04:22:34;;;;;;;10.63;4.33;;;8.60;4.60;;;;;;5056531;28;20200;-69
2023/05/05 04:25:00;;;;;;;18.60;6.07;;;8.60;4.60;;;;;;5074360;28;20908;-65
2023/05/05 04:27:27;;;;;;;11.20;5.33;;;8.60;4.80;;;;;;5073746;28;20179;-66
2023/05/05 04:29:53;;;;;;;7.20;5.10;;;8.60;6.60;;;;;;5073724;28;20190;-67
2023/05/05 04:32:19;;;;;;;10.73;5.80;;;8.60;7.90;;;;;;5073886;28;20467;-68
2023/05/05 04:34:45;;;;;;;9.90;4.90;;;8.70;12.80;;;;;;5073164;28;20179;-66
2023/05/05 04:37:11;;;;;;;4.70;4.20;;;8.70;11.20;;;;;;5094436;28;20402;-66
2023/05/05 04:39:37;;;;;;;7.23;5.33;;;8.70;11.90;;;;;;5088999;28;20389;-69
2023/05/05 04:42:03;;;;;;;11.00;5.57;;;8.70;14.00;;;;;;5072304;28;20706;-69
2023/05/05 04:44:28;;;;;;;9.50;5.10;;;8.70;18.10;;;;;;5056199;28;20421;-69
2023/05/05 04:46:54;;;;;;;8.10;4.20;;;8.70;19.70;;;;;;5074127;28;20403;-66
2023/05/05 04:49:20;;;;;;;8.20;4.33;;;8.70;18.80;;;;;;5073896;28;20249;-69
2023/05/05 04:51:46;;;;;;;10.30;4.50;;;8.70;20.10;;;;;;5072947;28;20168;-67
2023/05/05 04:54:11;;;;;;;5.57;4.33;;;8.70;16.50;;;;;;5075846;28;20556;-65
2023/05/05 04:56:37;;;;;;;7.47;4.10;;;8.60;7.70;;;;;;5073107;28;20190;-66
2023/05/05 04:59:03;;;;;;;13.03;4.77;;;8.60;2.90;;;;;;5073758;28;20230;-66
2023/05/05 05:01:28;;;;;;;7.93;4.67;;;8.60;1.00;;;;;;5072905;28;20505;-68
2023/05/05 05:03:54;;;;;;;6.50;3.73;;;8.60;1.00;;;;;;5073798;28;20536;-65
2023/05/05 05:06:20;;;;;;;8.10;4.30;;;8.60;1.00;;;;;;5089169;28;20166;-69
2023/05/05 05:08:45;;;;;;;5.30;4.00;;;8.60;1.00;;;;;;5083947;28;20320;-69
2023/05/05 05:11:11;;;;;;;9.13;4.90;;;8.60;1.00;;;;;;5072137;28;20638;-69
2023/05/05 05:13:37;;;;;;;11.17;3.87;;;8.60;1.00;;;;;;5073497;28;20203;-66
2023/05/05 05:16:02;;;;;;;7.50;3.70;;;8.70;1.00;;;;;;5067405;28;20188;-66
2023/05/05 05:18:28;;;;;;;8.27;3.90;;;8.70;1.00;;;;;;5072926;28;20189;-66
2023/05/05 05:20:54;;;;;;;9.87;3.70;;;8.80;1.00;;;;;;5072837;28;20250;-66
2023/05/05 05:23:19;;;;;;;9.97;3.77;;;8.80;1.00;;;;;;5072605;28;20585;-67
2023/05/05 05:25:45;;;;;;;4.20;3.70;;;8.80;1.00;;;;;;5074018;28;20199;-68
2023/05/05 05:28:11;;;;;;;6.17;3.57;;;8.80;1.00;;;;;;5085843;28;20269;-67
2023/05/05 05:30:36;;;;;;;3.13;2.83;;;8.90;1.00;;;;;;5092676;28;20249;-66
2023/05/05 05:33:02;;;;;;;6.93;3.30;;;8.90;1.00;;;;;;5081903;28;20199;-67
2023/05/05 05:35:28;;;;;;;8.93;3.33;;;8.90;1.00;;;;;;5073321;28;20208;-69
2023/05/05 05:37:53;;;;;;;7.40;3.60;;;8.90;1.00;;;;;;5072919;28;20199;-67
2023/05/05 05:40:19;;;;;;;7.97;3.67;;;8.80;1.00;;;;;;5072605;28;20193;-67
2023/05/05 05:42:45;;;;;;;8.80;3.77;;;8.90;1.00;;;;;;5073192;28;20224;-69
2023/05/05 05:45:11;;;;;;;4.43;3.07;;;8.90;1.00;;;;;;5072708;28;20247;-68
2023/05/05 05:47:36;;;;;;;4.27;3.10;;;8.90;1.00;;;;;;5073455;28;20257;-63
2023/05/05 05:50:03;;;;;;;6.50;3.30;;;9.10;1.00;;;;;;5070636;28;20743;-65
2023/05/05 05:52:29;;;;;;;11.97;4.23;;;9.10;1.00;;;;;;5076366;28;20187;-66
2023/05/05 05:54:55;;;;;;;4.40;3.13;;;9.20;1.00;;;;;;5077917;28;20536;-68
2023/05/05 05:57:23;;;;;;;7.33;3.47;;;9.20;1.00;;;;;;5075503;28;21516;-68
2023/05/05 05:59:49;;;;;;;5.83;2.73;;;9.20;1.00;;;;;;5076525;28;20183;-68
2023/05/05 06:02:15;;;;;;;10.70;4.57;;;9.30;1.00;;;;;;5076465;28;20418;-65
2023/05/05 06:04:41;;;;;;;10.80;3.67;;;9.30;1.00;;;;;;5075394;28;20424;-67
2023/05/05 06:07:06;;;;;;;5.40;2.87;;;9.50;1.00;;;;;;5077259;28;20442;-65
2023/05/05 06:09:32;;;;;;;11.30;3.27;;;9.60;1.00;;;;;;5077091;28;20177;-68
2023/05/05 06:11:58;;;;;;;6.70;3.60;;;9.60;1.00;;;;;;5093962;28;20176;-68
2023/05/05 06:14:24;;;;;;;7.23;3.23;;;9.70;1.00;;;;;;5097304;28;20204;-66
2023/05/05 06:16:51;;;;;;;7.73;3.20;;;9.70;1.00;;;;;;5080611;28;20188;-65
2023/05/05 06:19:16;;;;;;;12.37;3.90;;;9.80;1.00;;;;;;5075658;28;20610;-68
2023/05/05 06:21:42;;;;;;;6.43;3.30;;;9.80;1.00;;;;;;5075268;28;20404;-68
2023/05/05 06:24:08;;;;;;;4.40;2.50;;;9.90;1.00;;;;;;5076657;28;20210;-69
2023/05/05 06:26:33;;;;;;;7.03;3.07;;;9.90;1.00;;;;;;5077739;28;20201;-69
2023/05/05 06:28:59;;;;;;;4.13;3.13;;;9.90;1.00;;;;;;5077236;28;20563;-69
2023/05/05 06:31:25;;;;;;;11.80;4.10;;;10.00;1.00;;;;;;5086542;28;20177;-69
2023/05/05 06:33:50;;;;;;;7.33;3.33;;;10.00;1.00;;;;;;5078822;28;20243;-67
2023/05/05 06:36:16;;;;;;;6.90;3.00;;;10.10;1.00;;;;;;5067672;28;20223;-70
2023/05/05 06:38:42;;;;;;;9.53;3.90;;;10.10;1.00;;;;;;5096771;28;20197;-69
2023/05/05 06:41:07;;;;;;;6.77;2.77;;;10.10;1.00;;;;;;5095362;28;20166;-66
2023/05/05 06:43:33;;;;;;;6.47;3.13;;;10.20;1.00;;;;;;5096636;28;20188;-68
2023/05/05 06:45:59;;;;;;;4.70;3.10;;;10.30;1.00;;;;;;5096539;28;20211;-71
2023/05/05 06:48:24;;;;;;;5.63;2.73;;;10.30;1.00;;;;;;5081099;28;20231;-70
2023/05/05 06:50:50;;;;;;;5.80;3.47;;;10.40;1.00;;;;;;5075667;28;20221;-70
2023/05/05 06:53:16;;;;;;;5.60;2.57;;;10.50;1.00;;;;;;5076429;28;20584;-66
2023/05/05 06:55:47;;;;;;;6.27;2.87;;;10.60;1.00;;;;;;5058366;28;20573;-66
2023/05/05 06:58:13;;;;;;;7.07;3.43;;;10.70;1.00;;;;;;5075819;28;20187;-68
2023/05/05 07:00:39;;;;;;;4.20;2.97;;;10.60;1.00;;;;;;5074239;28;20486;-66
2023/05/05 07:03:05;;;;;;;8.20;3.93;;;10.60;1.00;;;;;;5076198;28;20659;-67
2023/05/05 07:05:31;;;;;;;3.67;3.37;;;10.70;1.00;;;;;;5076136;28;21188;-66
2023/05/05 07:07:57;;;;;;;4.57;2.90;;;10.80;1.00;;;;;;5076125;28;20167;-69
2023/05/05 07:10:23;;;;;;;5.87;2.80;;;10.80;1.00;;;;;;5075007;28;20219;-67
2023/05/05 07:12:50;;;;;;;3.93;2.87;;;10.80;1.00;;;;;;5075909;28;20446;-65
2023/05/05 07:15:16;;;;;;;4.00;2.73;;;10.70;1.00;;;;;;5073864;28;20518;-67
2023/05/05 07:17:42;;;;;;;4.40;2.80;;;10.70;1.00;;;;;;5075555;28;20979;-66
2023/05/05 07:20:10;;;;;;;5.47;2.97;;;10.60;1.00;;;;;;5074632;28;20443;-70
2023/05/05 07:22:36;;;;;;;3.70;2.73;;;10.60;1.00;;;;;;5075773;28;20403;-66
2023/05/05 07:25:03;;;;;;;6.03;3.07;;;10.70;1.00;;;;;;5076039;28;20390;-66
2023/05/05 07:27:32;;;;;;;8.33;3.43;;;10.90;1.00;;;;;;5075838;28;20159;-65
2023/05/05 07:29:58;;;;;;;3.23;2.93;;;10.90;1.00;;;;;;5075207;28;20464;-69
2023/05/05 07:32:24;;;;;;;4.93;2.70;;;11.00;1.00;;;;;;5074891;28;20390;-68
2023/05/05 07:34:50;;;;;;;5.50;3.23;;;11.00;1.00;;;;;;5075215;28;20376;-69
2023/05/05 07:37:16;;;;;;;4.57;3.30;;;11.00;1.00;;;;;;5075940;28;20378;-66
2023/05/05 07:39:41;;;;;;;3.23;2.93;;;11.10;1.00;;;;;;5075602;28;20563;-69
2023/05/05 07:42:08;;;;;;;4.33;2.70;;;11.10;1.00;;;;;;5074534;28;20241;-68
2023/05/05 07:44:33;;;;;;;5.07;3.10;;;11.10;1.00;;;;;;5075096;28;20174;-68
2023/05/05 07:46:59;;;;;;;9.60;3.63;;;11.10;1.00;;;;;;5075364;28;20398;-66
2023/05/05 07:49:25;;;;;;;9.83;3.80;;;11.10;1.00;;;;;;5087802;28;20698;-66
2023/05/05 07:51:51;;;;;;;6.47;3.27;;;11.10;1.00;;;;;;5091141;28;20194;-69
2023/05/05 07:54:17;;;;;;;5.53;3.00;;;11.00;1.00;;;;;;5075136;28;20487;-68
2023/05/05 07:56:43;;;;;;;7.80;2.60;;;11.00;1.00;;;;;;5073865;28;20836;-68
2023/05/05 07:59:10;;;;;;;10.00;3.30;;;11.20;1.00;;;;;;5074993;28;20442;-70
2023/05/05 08:01:36;;;;;;;4.03;3.03;;;11.40;1.00;;;;;;5073860;28;20177;-66
2023/05/05 08:04:02;;;;;;;5.80;2.70;;;11.60;1.00;;;;;;5086984;28;20448;-69
2023/05/05 08:06:30;;;;;;;5.17;2.77;;;11.70;1.00;;;;;;5074899;28;20405;-70
2023/05/05 08:08:58;;;;;;;7.70;3.83;;;11.80;1.00;;;;;;5074226;28;20182;-70
2023/05/05 08:11:24;;;;;;;3.30;2.53;;;11.80;1.00;;;;;;5081129;28;20473;-68
2023/05/05 08:13:50;;;;;;;6.93;2.70;;;12.00;1.00;;;;;;5094545;28;20466;-68
2023/05/05 08:16:16;;;;;;;5.10;3.37;;;12.00;1.00;;;;;;5087898;28;20423;-67
2023/05/05 08:18:42;;;;;;;3.50;3.03;;;12.10;1.00;;;;;;5073889;28;20218;-66
2023/05/05 08:21:08;;;;;;;3.87;2.80;;;12.30;1.00;;;;;;5056467;28;20438;-66
2023/05/05 08:23:34;;;;;;;6.17;3.20;;;12.50;1.00;;;;;;5074540;28;20190;-67
2023/05/05 08:26:01;;;;;;;3.77;2.57;;;12.50;1.00;;;;;;5074218;28;20408;-67
2023/05/05 08:28:27;;;;;;;6.80;3.10;;;12.40;1.00;;;;;;5074069;28;20387;-66
2023/05/05 08:30:53;;;;;;;5.80;3.57;;;12.40;1.00;;;;;;5073553;28;20469;-65
2023/05/05 08:33:19;;;;;;;5.33;3.10;;;12.40;1.00;;;;;;5073641;28;20455;-66
2023/05/05 08:35:47;;;;;;;3.70;3.03;;;12.40;1.00;;;;;;5074950;28;20473;-68
2023/05/05 08:38:13;;;;;;;5.03;2.87;;;12.40;1.00;;;;;;5074218;28;20190;-68
2023/05/05 08:40:39;;;;;;;5.10;2.90;;;12.40;1.00;;;;;;5073322;28;20386;-66
2023/05/05 08:43:05;;;;;;;7.70;3.53;;;12.50;1.00;;;;;;5074059;28;20541;-68
2023/05/05 08:45:35;;;;;;;3.70;2.67;;;12.70;1.00;;;;;;5073441;28;20894;-68
2023/05/05 08:48:02;;;;;;;4.60;3.87;;;12.70;1.00;;;;;;5073900;28;20406;-67
2023/05/05 08:50:29;;;;;;;3.63;3.00;;;12.60;1.00;;;;;;5055354;28;20746;-67
2023/05/05 08:53:00;;;;;;;3.40;2.23;;;12.60;1.00;;;;;;5074569;28;20502;-68
2023/05/05 08:55:32;;;;;;;4.00;3.37;;;12.60;1.00;;;;;;5056287;28;20416;-68
2023/05/05 08:58:01;;;;;;;7.83;2.97;;;12.70;1.00;;;;;;5073486;28;20426;-67
2023/05/05 09:00:27;;;;;;;5.53;2.87;;;12.90;1.00;;;;;;5071659;28;20483;-68
2023/05/05 09:02:58;;;;;;;3.50;3.00;;;13.10;1.00;;;;;;5055929;28;20433;-67
2023/05/05 09:05:25;;;;;;;4.43;2.70;;;13.30;1.00;;;;;;5073129;28;20404;-68
2023/05/05 09:07:51;;;;;;;5.50;3.20;;;13.60;1.00;;;;;;5073861;28;20423;-67
2023/05/05 09:10:17;;;;;;;6.10;3.17;;;13.90;1.00;;;;;;5072967;28;20420;-67
2023/05/05 09:12:43;;;;;;;6.10;3.03;;;14.10;1.00;;;;;;5073569;28;20452;-68
2023/05/05 09:15:13;;;;;;;4.73;3.63;;;14.40;1.00;;;;;;5073175;28;20916;-67
2023/05/05 09:17:40;;;;;;;6.10;2.93;;;14.70;1.00;;;;;;5073757;28;20556;-67
2023/05/05 09:20:08;;;;;;;3.40;2.97;;;14.90;1.00;;;;;;5072645;28;20401;-67
2023/05/05 09:22:45;;;;;;;4.63;2.50;;;14.90;1.00;;;;;;5055154;28;20475;-66
2023/05/05 09:25:13;;;;;;;9.37;2.90;;;14.60;1.00;;;;;;5072597;28;20730;-69
2023/05/05 09:27:44;;;;;;;4.70;2.80;;;14.30;1.00;;;;;;5073661;28;20396;-67
2023/05/05 09:30:13;;;;;;;12.43;3.13;;;14.20;1.00;;;;;;5053579;28;20916;-69
2023/05/05 09:32:47;;;;;;;8.07;3.00;;;14.10;1.00;;;;;;5055926;28;20436;-69
2023/05/05 09:35:14;;;;;;;5.00;2.63;;;14.30;1.00;;;;;;5073390;28;20931;-67
2023/05/05 09:37:44;;;;;;;8.27;3.17;;;14.80;1.00;;;;;;5072474;28;20464;-70
2023/05/05 09:40:12;;;;;;;3.77;2.67;;;15.40;1.00;;;;;;5054015;28;20522;-70
2023/05/05 09:42:39;;;;;;;2.90;2.20;;;15.70;1.00;;;;;;5072881;28;20439;-67
2023/05/05 09:45:17;;;;;;;7.80;2.33;;;16.00;1.00;;;;;;5055497;28;20451;-68
2023/05/05 09:47:46;;;;;;;9.43;2.87;;;16.50;1.00;;;;;;5055187;28;20423;-69
2023/05/05 09:50:14;;;;;;;14.10;2.53;;;16.80;1.00;;;;;;5072295;28;21016;-69
2023/05/05 09:52:58;;;;;;;4.80;2.63;;;16.90;1.00;;;;;;5086778;28;20584;-69
2023/05/05 09:58:40;;;;;;;8.03;2.10;;;17.00;1.00;;;;;;5074240;28;20813;-67
2023/05/05 10:01:21;;;;;;;6.10;3.23;;;16.80;1.00;;;;;;5072258;28;20420;-69
2023/05/05 10:03:51;;;;;;;4.70;2.47;;;16.10;1.00;;;;;;5073251;28;20420;-68
2023/05/05 10:06:16;;;;;;;8.63;2.60;;;15.50;1.00;;;;;;5072254;28;20428;-69
2023/05/05 10:08:42;;;;;;;7.00;3.00;;;15.20;1.00;;;;;;5073160;28;20454;-66
2023/05/05 10:11:08;;;;;;;7.43;2.37;;;14.80;1.00;;;;;;5054199;28;20221;-67
2023/05/05 10:13:36;;;;;;;4.10;2.83;;;14.60;1.00;;;;;;5073008;28;20210;-66
2023/05/05 10:16:03;;;;;;;4.47;3.23;;;14.60;1.00;;;;;;5071277;28;20239;-67
2023/05/05 10:18:31;;;;;;;6.13;2.90;;;14.70;1.00;;;;;;5072641;28;20448;-67
2023/05/05 10:21:03;;;;;;;3.33;1.70;;;15.00;1.00;;;;;;5071832;28;20939;-69
2023/05/05 10:23:43;;;;;;;5.57;2.50;;;15.00;1.00;;;;;;5073034;28;20921;-69
2023/05/05 10:26:13;;;;;;;8.00;2.47;;;15.00;1.00;;;;;;5056321;28;20428;-68
2023/05/05 10:28:55;;;;;;;7.97;3.43;;;15.00;1.00;;;;;;5072218;28;20504;-69
2023/05/05 10:31:28;;;;;;;3.97;1.93;;;15.20;1.00;;;;;;5054327;28;20573;-68
2023/05/05 10:34:04;;;;;;;4.77;1.90;;;15.10;1.00;;;;;;5072822;28;20428;-68
2023/05/05 10:36:32;;;;;;;6.00;2.70;;;15.10;1.00;;;;;;5090665;28;20772;-69
2023/05/05 10:38:59;;;;;;;5.10;2.30;;;15.20;1.00;;;;;;5096252;28;20446;-70
2023/05/05 10:41:25;;;;;;;3.77;2.50;;;15.70;1.00;;;;;;5080566;28;20459;-67
2023/05/05 10:43:57;;;;;;;17.63;3.00;;;16.20;1.00;;;;;;5075161;28;20538;-69
2023/05/05 10:46:50;;;;;;;4.13;2.37;;;16.60;1.00;;;;;;5076511;28;20416;-69
2023/05/05 10:49:43;;;;;;;2.50;2.30;;;16.80;1.00;;;;;;5058284;28;20427;-68
2023/05/05 10:52:35;;;;;;;9.93;3.53;;;16.60;1.00;;;;;;5095984;28;20470;-67
2023/05/05 10:55:39;;;;;;;4.20;2.47;;;16.50;1.00;;;;;;5076127;28;20932;-68
2023/05/05 10:58:07;;;;;;;4.23;2.30;;;16.60;1.00;;;;;;4974383;28;20956;-67
2023/05/05 11:00:39;;;;;;;3.93;2.13;;;16.70;1.00;;;;;;5052134;28;20438;-69
2023/05/05 11:03:17;;;;;;;2.90;1.33;;;16.80;1.00;;;;;;5096572;28;20423;-68
2023/05/05 11:06:06;;;;;;;2.70;2.07;;;16.30;1.00;;;;;;5088639;28;20424;-68
2023/05/05 11:08:37;;;;;;;11.37;2.10;;;15.80;1.00;;;;;;5058385;28;20504;-69
2023/05/05 11:11:04;;;;;;;3.10;1.80;;;15.60;99.90;;;;;;5076230;28;20428;-67
2023/05/05 11:13:30;;;;;;;2.60;1.40;;;15.50;99.90;;;;;;5074504;28;21030;-67
2023/05/05 11:15:58;;;;;;;6.40;2.53;;;15.10;99.90;;;;;;5075958;28;20421;-67
2023/05/05 11:18:37;;;;;;;6.13;2.20;;;15.00;1.00;;;;;;5057849;28;20481;-68
2023/05/05 11:21:15;;;;;;;3.23;2.03;;;14.80;99.90;;;;;;5085674;28;20472;-68
2023/05/05 11:23:44;;;;;;;6.93;2.70;;;14.40;99.90;;;;;;5096503;28;20423;-68
2023/05/05 11:26:11;;;;;;;5.73;2.33;;;14.30;99.90;;;;;;5091872;28;20416;-68
2023/05/05 11:28:59;;;;;;;5.43;2.33;;;14.50;1.00;;;;;;5075206;28;20400;-69
2023/05/05 11:31:25;;;;;;;2.10;1.90;;;14.60;1.00;;;;;;5062203;28;20976;-68
2023/05/05 11:33:51;;;;;;;10.10;3.90;;;14.90;99.90;;;;;;5075339;28;21008;-68
2023/05/05 11:36:18;;;;;;;5.60;2.70;;;15.30;1.00;;;;;;5090720;28;20419;-67
2023/05/05 11:39:06;;;;;;;4.47;2.13;;;16.00;1.00;;;;;;5077748;28;21070;-69
2023/05/05 11:41:44;;;;;;;7.13;1.77;;;16.50;1.00;;;;;;5070974;28;20420;-67
2023/05/05 11:47:17;;;;;;;5.73;2.20;;;17.00;1.00;;;;;;5056969;28;20455;-69
2023/05/05 11:49:43;;;;;;;7.90;2.47;;;16.70;1.00;;;;;;5076749;28;20421;-68
2023/05/05 11:52:11;;;;;;;3.33;2.20;;;16.40;99.90;;;;;;5056384;28;20190;-69
2023/05/05 11:54:48;;;;;;;4.73;2.27;;;16.20;99.90;;;;;;5057216;28;20665;-67
2023/05/05 11:57:16;;;;;;;3.80;2.07;;;15.90;99.90;;;;;;5076122;28;20404;-67
2023/05/05 11:59:52;;;;;;;5.50;2.20;;;15.50;99.90;;;;;;5075111;28;20456;-69
2023/05/05 12:02:18;;;;;;;2.30;2.10;;;15.20;99.90;;;;;;5073062;28;20480;-69
2023/05/05 12:04:46;;;;;;;3.73;2.10;;;14.70;99.90;;;;;;5075126;28;20480;-67
2023/05/05 12:07:25;;;;;;;3.17;2.60;;;14.40;99.90;;;;;;5074363;28;20408;-67
2023/05/05 12:09:51;;;;;;;3.00;2.30;;;14.30;99.90;;;;;;5074746;28;20392;-69
2023/05/05 12:12:17;;;;;;;6.40;3.10;;;14.10;99.90;;;;;;5074173;28;20424;-68
2023/05/05 12:14:51;;;;;;;4.10;2.10;;;14.10;99.90;;;;;;5074873;28;20181;-69
2023/05/05 12:17:21;;;;;;;2.93;2.20;;;14.30;99.90;;;;;;5055860;28;20516;-67
2023/05/05 12:19:54;;;;;;;6.50;2.40;;;14.30;99.90;;;;;;5054342;28;20480;-69
2023/05/05 12:22:23;;;;;;;10.93;2.87;;;14.20;99.90;;;;;;5053941;28;20761;-69
2023/05/05 12:24:56;;;;;;;11.67;2.70;;;14.00;99.90;;;;;;5054055;28;20432;-67
2023/05/05 12:27:23;;;;;;;2.70;2.43;;;13.90;99.90;;;;;;5054705;28;20426;-69
2023/05/05 12:29:50;;;;;;;7.93;2.80;;;13.80;99.90;;;;;;5054058;28;20398;-68
2023/05/05 12:32:34;;;;;;;4.30;2.33;;;13.60;99.90;;;;;;5074308;28;20424;-67
2023/05/05 12:35:02;;;;;;;3.43;2.20;;;13.40;99.90;;;;;;5074408;28;20397;-68
2023/05/05 12:37:28;;;;;;;2.60;2.40;;;13.20;99.90;;;;;;5074398;28;20862;-67
2023/05/05 12:39:54;;;;;;;19.33;2.63;;;13.20;99.90;;;;;;5074079;28;20421;-67
2023/05/05 12:42:20;;;;;;;3.13;1.50;;;13.20;99.90;;;;;;5055623;28;20925;-67
2023/05/05 12:44:46;;;;;;;5.43;3.70;;;13.20;99.90;;;;;;5073003;28;20237;-67
2023/05/05 12:47:13;;;;;;;13.10;2.70;;;13.10;99.90;;;;;;5074248;28;21102;-67
2023/05/05 12:49:49;;;;;;;3.10;2.20;;;13.00;99.90;;;;;;5074728;28;20196;-66
2023/05/05 12:52:15;;;;;;;3.17;2.97;;;12.90;99.90;;;;;;5073712;28;20939;-67
2023/05/05 12:55:10;;;;;;;10.73;2.47;;;12.90;99.90;;;;;;5056054;28;20413;-68
2023/05/05 12:57:37;;;;;;;6.63;3.97;;;12.80;99.90;;;;;;5061088;28;20190;-67
2023/05/05 13:00:18;;;;;;;4.60;2.40;;;12.80;99.90;;;;;;5073036;28;20459;-68
2023/05/05 13:02:44;;;;;;;4.70;2.57;;;12.70;99.90;;;;;;5072681;28;20464;-66
2023/05/05 13:05:10;;;;;;;6.40;2.63;;;12.50;99.90;;;;;;5073938;28;20382;-67
2023/05/05 13:07:47;;;;;;;8.87;2.30;;;12.50;99.90;;;;;;5073786;28;20396;-67
2023/05/05 13:10:13;;;;;;;4.30;2.40;;;12.40;99.90;;;;;;5073443;28;20192;-66
2023/05/05 13:12:39;;;;;;;4.80;2.50;;;12.30;99.90;;;;;;5073868;28;20547;-68